Memphis, TN

4:50 PM CDT on May 24, 2015 (GMT -0500)
Sea Isle | | Change Station
CLOSE
Current Station
Personal Weather Station
Location: Memphis, TN
Elevation: 276 ft
Nearby Weather Stations
Active Advisory: Tornado Watch

Elev 276 ft 35.09 °N, 89.89 °W | Updated 1 second ago

Mostly Cloudy
Mostly Cloudy
86.9 °F
Feels Like 95 °F
N
6.9
Wind Variable Wind from SW
Gusts 6.9 mph

Today
High -- | Low -- °F
--% Chance of Precip.
Yesterday
High -- | Low -- °F
Precip. -- in
5:50 AM 8:03 PM
Waxing Crescent, 42% visible
Pressure 29.98 in
Visibility 10.0 miles
Clouds Scattered Clouds 4000 ft
Mostly Cloudy 10000 ft
Heat Index 95 °F
Dew Point 74 °F
Humidity 65%
Rainfall 0.05 in
Snow Depth Not available.
UV 4 out of 12
Pollen 6.70 out of 12
Air Quality Not available.
Flu Activity Sporadic
METAR KMEM 242054Z 15015KT 10SM SCT040 BKN100 30/19 A2999 RMK AO2 SLP151 T03000194 56026

More Conditions Fewer Conditions

Pressure 29.98 in
Visibility 10.0 miles
Clouds Scattered Clouds 4000 ft
Mostly Cloudy 10000 ft
Heat Index 95 °F
Dew Point 74 °F
Humidity 65%
Rainfall 0.05 in
Snow Depth Not available.
UV 4 out of 12
Pollen 6.70 out of 12
Air Quality Not available.
Flu Activity Sporadic
METAR KMEM 242054Z 15015KT 10SM SCT040 BKN100 30/19 A2999 RMK AO2 SLP151 T03000194 56026

More Conditions Fewer Conditions

10-Day Weather Forecast

Almanac

Astronomy

May. 24, 2015 Rise Set
Actual Time
Civil Twilight
Nautical Twilight
Astronomical Twilight
Moon
Length of Visible Light
Length of Day
Tomorrow will be .
, % of the Moon is Illuminated

Today's Extremes

State Highs State Lows

Community

WunderPhotos

Upload Photos

1,823,876 photos uploaded!

WunderBlogs® & News

Nearby

Air Quality

  Air Quality AQ Index Pollutant
Not available.

Snow Depth

Station Depth Elevation

Earthquake Activity

City Distance Mag. Time & Date
Minimum magnitude displayed is 2.5.

Coastal Water Temperatures

Place Temperature

Stations

Nearby Weather Stations

Station Location Temp. Windchill Dew Point Humidity Wind Precip. Elev Updated Type
                   
Tornado Watch
Statement as of 4:43 PM CDT on May 24, 2015

Tornado Watch 205 remains in effect until 1000 PM CDT for the
following locations

TN
. Tennessee counties included are

Chester Crockett Dyer
Fayette Gibson Hardeman
Haywood Lake Lauderdale
McNairy Madison Obion
Shelby Tipton